KSHV/SHV METAR and TAF weather

Enter ICAO airport designator
Station Type Date Time Source
KSHV METAR 2019/10/15 18:29 UTC NOAA

KSHV 151829Z 22007KT 10SM BKN017 BKN022 OVC070 27/24 A2989 RMK AO2 T02670239


Station Type Date Time Source
KSHV Decoded METAR 2019/10/15 18:29 UTC NOAA

SHREVEPORT REGIONAL AIRPORT, LA, United States (KSHV) 32-27N 93-50W 80M
Oct 15, 2019 - 02:29 PM EDT / 2019.10.15 1829 UTC
Wind: from the SW (220 degrees) at 8 MPH (7 KT):0
Visibility: 10 mile(s):0
Sky conditions: overcast
Temperature: 80.1 F (26.7 C)
Dew Point: 75.0 F (23.9 C)
Relative Humidity: 84%
Pressure (altimeter): 29.89 in. Hg (1012 hPa)
ob: KSHV 151829Z 22007KT 10SM BKN017 BKN022 OVC070 27/24 A2989 RMK AO2 T02670239
cycle: 18

Station Type Date Time Source
KSHV TAF 2019/10/15 18:54 UTC NOAA

TAF KSHV 151753Z 1518/1618 22007KT P6SM OVC010
FM151900 22011KT P6SM OVC016
FM152100 22007KT P6SM VCTS OVC035CB
FM160000 18005KT P6SM VCTS OVC030CB
FM160600 29004KT P6SM VCTS BKN004 OVC015CB
FM160900 36016KT P6SM OVC007
FM161200 36012KT P6SM OVC035
FM161500 01012KT P6SM SKC

Example: see airport list